Mountain Loop
White Chuck
Latest observation 08/31 21:00 PDT
| Time (PDT) | Temp °F 5030' | RH % 5030' | Min mph 5030' | Spd mph 5030' | Gust mph 5030' | Dir ° 5030' | SnoHt in 5030' | SR W/m² 5030' |
|---|---|---|---|---|---|---|---|---|
| 08/31 21:00 | 58 | 56 | 0 | 0 | 1 | 128 | 0.8 | 0 |
| 08/31 20:00 | 59 | 59 | 0 | 0 | 2 | 118 | 0.5 | 17 |
| 08/31 19:00 | 61 | 56 | 0 | 0 | 2 | 34 | 0.6 | 41 |
| 08/31 18:00 | 62 | 56 | 0 | 0 | 3 | 299 | 0.7 | 66 |
| 08/31 17:00 | 62 | 55 | 0 | 0 | 2 | 112 | 1.0 | 71 |
| 08/31 16:00 | 64 | 53 | 0 | 1 | 3 | 294 | 0.1 | 406 |
| 08/31 15:00 | 65 | 51 | 0 | 1 | 4 | 311 | 0.1 | 620 |
| 08/31 14:00 | 65 | 51 | 0 | 1 | 5 | 289 | 0.4 | 629 |
| 08/31 13:00 | 64 | 48 | 0 | 1 | 6 | 325 | 0.5 | 625 |
| 08/31 12:00 | 63 | 50 | 0 | 1 | 5 | 116 | 0.7 | 617 |
| 08/31 11:00 | 62 | 53 | 0 | 1 | 6 | 251 | 0.8 | 518 |
| 08/31 10:00 | 60 | 56 | 0 | 1 | 5 | 265 | 0.8 | 334 |
| 08/31 09:00 | 57 | 64 | 0 | 0 | 3 | 140 | 0.7 | 94 |
| 08/31 08:00 | 54 | 67 | 0 | 0 | 5 | 81 | 0.8 | 56 |
| 08/31 07:00 | 51 | 72 | 0 | 0 | 3 | 96 | 0.9 | 9 |
| 08/31 06:00 | 50 | 74 | 0 | 0 | 4 | 118 | 0.7 | 0 |
| 08/31 05:00 | 49 | 76 | 0 | 0 | 2 | 166 | 0.8 | 0 |
| 08/31 04:00 | 48 | 75 | 0 | 1 | 2 | 114 | 0.7 | 0 |
| 08/31 03:00 | 46 | 85 | 0 | 0 | 2 | 101 | 0.7 | 0 |
| 08/31 02:00 | 44 | 90 | 0 | 1 | 2 | 95 | 0.7 | 0 |
| 08/31 01:00 | 42 | 98 | 0 | 1 | 2 | 80 | 0.8 | 0 |
| 08/31 00:00 | 42 | 98 | 0 | 0 | 2 | 74 | 1.0 | 0 |
| 08/30 23:00 | 42 | 99 | 0 | 2 | 3 | 65 | 1.0 | 0 |
| 08/30 22:00 | 42 | 100 | 0 | 2 | 4 | 66 | 1.1 | 0 |

